Dallas, Texas
Traffic Map
Current Weather Conditions
Dallas, Texas
Clear
Clear

Feels Like: 5°
Wind Chill: Ceiling: Unl
Heat Index: Visibility: 10mi
Dew Point: -2° Wind: 0mph
Humidity: 62% Direction: ° ()
Pressure: 30.1in Gusts: 0mph
Raw Report DataKDAL 130953Z 00000KT 10SM CLR 05/M02 A3010 RMK AO2 SLP191 T00501017
Traffic Incident Summary
Active as of:
Severity:
Category:
InformationThere was an issue retrieving the traffic information for this location. Please try a different location or try again shortly.
Advertisements